createdAt,value
2023-05-20T00:01:56.128Z,48781.31
2023-05-20T00:04:23.004Z,48820.47
2023-05-20T00:06:51.952Z,48796.97
2023-05-20T00:09:18.759Z,48840.06
2023-05-20T00:11:46.248Z,48800.88
2023-05-20T00:14:13.078Z,48808.72
2023-05-20T00:16:39.592Z,48796.97
2023-05-20T00:19:06.468Z,48798.94
2023-05-20T00:21:33.966Z,48804.81
2023-05-20T00:24:00.985Z,48800.88
2023-05-20T00:26:27.731Z,48791.09
2023-05-20T00:28:54.292Z,48785.22
2023-05-20T00:31:21.778Z,48800.88
2023-05-20T00:33:48.496Z,48800.88
2023-05-20T00:36:14.909Z,48828.31
2023-05-20T00:38:43.729Z,48796.97
2023-05-20T00:41:10.299Z,48824.41
2023-05-20T00:43:37.044Z,48832.22
2023-05-20T00:46:03.765Z,48832.22
2023-05-20T00:48:40.853Z,48838.09
2023-05-20T00:51:08.070Z,48832.22
2023-05-20T00:53:36.451Z,48840.06
2023-05-20T00:56:04.498Z,48816.56
2023-05-20T00:58:31.538Z,48826.34
2023-05-20T01:00:58.449Z,48836.16
2023-05-20T01:03:25.178Z,48847.91
2023-05-20T01:05:51.799Z,48840.06
2023-05-20T01:08:19.121Z,48865.53
2023-05-20T01:10:49.338Z,48834.19
2023-05-20T01:13:20.780Z,48865.53
2023-05-20T01:15:49.672Z,48844.00
2023-05-20T01:18:20.575Z,48859.66
2023-05-20T01:20:50.685Z,48877.28
2023-05-20T01:23:17.322Z,48863.56
2023-05-20T01:25:43.908Z,48885.13
2023-05-20T01:28:10.666Z,48912.56
2023-05-20T01:30:46.290Z,48889.03
2023-05-20T01:33:14.870Z,48875.34
2023-05-20T01:35:42.437Z,48871.41
2023-05-20T01:38:12.187Z,48869.44
2023-05-20T01:40:39.659Z,48879.25
2023-05-20T01:43:09.499Z,48906.69
2023-05-20T01:45:36.470Z,48896.88
2023-05-20T01:48:04.373Z,48867.50
2023-05-20T01:50:32.706Z,48898.84
2023-05-20T01:52:59.199Z,48910.59
2023-05-20T01:55:25.964Z,48863.56
2023-05-20T01:57:52.788Z,48871.41
2023-05-20T02:00:19.395Z,48891.00
2023-05-20T02:02:46.049Z,48883.16
2023-05-20T02:05:13.041Z,48847.91
2023-05-20T02:07:39.581Z,48887.09
2023-05-20T02:10:09.257Z,48883.16
2023-05-20T02:12:36.204Z,48879.25
2023-05-20T02:15:02.887Z,48871.41
2023-05-20T02:17:31.385Z,48891.00
2023-05-20T02:19:57.902Z,48900.78
2023-05-20T02:22:24.427Z,48912.56
2023-05-20T02:24:50.973Z,48906.69
2023-05-20T02:27:17.462Z,48922.34
2023-05-20T02:29:44.574Z,48859.66
2023-05-20T02:32:11.501Z,48914.50
2023-05-20T02:34:37.980Z,48857.69
2023-05-20T02:37:05.706Z,48902.75
2023-05-20T02:39:32.291Z,48930.19
2023-05-20T02:41:58.762Z,48914.50
2023-05-20T02:44:25.578Z,48906.69
2023-05-20T02:46:52.706Z,48936.06
2023-05-20T02:49:19.265Z,48930.19
2023-05-20T02:51:45.736Z,48941.94
2023-05-20T02:54:12.531Z,48900.78
2023-05-20T02:56:39.319Z,48926.25
2023-05-20T02:59:07.385Z,48914.50
2023-05-20T03:01:35.764Z,48953.69
2023-05-20T03:04:03.441Z,48922.34
2023-05-20T03:06:32.085Z,48928.22
2023-05-20T03:08:59.689Z,48941.94
2023-05-20T03:11:26.769Z,48930.19
2023-05-20T03:13:53.583Z,48949.78
2023-05-20T03:16:20.437Z,48920.38
2023-05-20T03:18:47.199Z,48904.72
2023-05-20T03:21:13.726Z,48930.19
2023-05-20T03:23:40.203Z,48953.69
2023-05-20T03:26:06.869Z,48957.59
2023-05-20T03:28:33.336Z,48953.69
2023-05-20T03:30:59.904Z,48969.38
2023-05-20T03:33:26.921Z,48943.91
2023-05-20T03:35:53.695Z,48979.16
2023-05-20T03:38:20.509Z,48957.59
2023-05-20T03:40:47.034Z,48928.22
2023-05-20T03:43:16.138Z,48963.50
2023-05-20T03:45:43.321Z,48953.69
2023-05-20T03:48:09.740Z,48953.69
2023-05-20T03:50:36.183Z,48941.94
2023-05-20T03:53:02.672Z,48953.69
2023-05-20T03:55:37.767Z,48961.53
2023-05-20T03:58:04.275Z,48971.31
2023-05-20T04:00:31.859Z,48945.84
2023-05-20T04:02:58.856Z,48930.19
2023-05-20T04:05:25.717Z,48961.53
2023-05-20T04:07:52.478Z,48953.69
2023-05-20T04:10:20.530Z,48988.94
2023-05-20T04:12:47.004Z,48965.44
2023-05-20T04:15:15.746Z,48941.94
2023-05-20T04:17:43.850Z,48992.88
2023-05-20T04:20:12.250Z,48922.34
2023-05-20T04:22:40.052Z,48945.84
2023-05-20T04:25:08.005Z,48979.16
2023-05-20T04:27:36.091Z,48965.44
2023-05-20T04:30:02.881Z,48949.78
2023-05-20T04:32:29.666Z,48977.19
2023-05-20T04:34:57.363Z,48947.81
2023-05-20T04:37:23.850Z,48992.88
2023-05-20T04:39:51.130Z,48941.94
2023-05-20T04:42:18.951Z,48957.59
2023-05-20T04:44:48.790Z,48965.44
2023-05-20T04:47:16.222Z,48996.78
2023-05-20T04:49:46.084Z,48947.81
2023-05-20T04:52:12.628Z,48969.38
2023-05-20T04:54:40.549Z,48957.59
2023-05-20T04:57:07.307Z,48961.53
2023-05-20T04:59:35.100Z,48961.53
2023-05-20T05:02:02.748Z,48949.78
2023-05-20T05:04:29.811Z,48945.84
2023-05-20T05:06:56.590Z,48961.53
2023-05-20T05:09:23.054Z,48969.38
2023-05-20T05:11:49.581Z,48945.84
2023-05-20T05:14:19.333Z,48963.50
2023-05-20T05:16:45.896Z,48930.19
2023-05-20T05:19:13.811Z,48967.41
2023-05-20T05:21:40.566Z,48949.78
2023-05-20T05:24:07.592Z,48949.78
2023-05-20T05:26:34.070Z,48965.44
2023-05-20T05:29:00.633Z,48957.59
2023-05-20T05:31:27.065Z,48951.72
2023-05-20T05:33:54.113Z,48945.84
2023-05-20T05:36:20.851Z,48914.50
2023-05-20T05:38:47.551Z,48904.72
2023-05-20T05:41:14.668Z,48867.50
2023-05-20T05:43:43.140Z,48883.16
2023-05-20T05:46:10.079Z,48847.91
2023-05-20T05:48:37.265Z,48871.41
2023-05-20T05:51:04.437Z,48879.25
2023-05-20T05:53:30.896Z,48863.56
2023-05-20T05:55:57.613Z,48865.53
2023-05-20T05:58:25.144Z,48851.81
2023-05-20T06:00:53.085Z,48830.28
2023-05-20T06:03:20.008Z,48840.06
2023-05-20T06:05:47.433Z,48812.63
2023-05-20T06:08:14.164Z,48828.31
2023-05-20T06:10:40.817Z,48832.22
2023-05-20T06:13:07.531Z,48824.41
2023-05-20T06:15:34.334Z,48818.53
2023-05-20T06:18:01.068Z,48804.81
2023-05-20T06:20:27.608Z,48824.41
2023-05-20T06:22:54.113Z,48796.97
2023-05-20T06:25:23.213Z,48800.88
2023-05-20T06:27:50.366Z,48816.56
2023-05-20T06:30:17.737Z,48816.56
2023-05-20T06:32:45.035Z,48787.19
2023-05-20T06:35:13.110Z,48810.69
2023-05-20T06:37:39.735Z,48800.88
2023-05-20T06:40:07.632Z,48832.22
2023-05-20T06:42:34.506Z,48796.97
2023-05-20T06:45:01.276Z,48789.13
2023-05-20T06:47:27.784Z,48785.22
2023-05-20T06:49:54.659Z,48826.34
2023-05-20T06:52:21.168Z,48791.09
2023-05-20T06:54:47.671Z,48798.94
2023-05-20T06:57:14.172Z,48812.63
2023-05-20T06:59:41.927Z,48800.88
2023-05-20T07:02:10.667Z,48761.72
2023-05-20T07:04:37.353Z,48781.31
2023-05-20T07:07:03.895Z,48781.31
2023-05-20T07:09:30.480Z,48804.81
2023-05-20T07:11:57.403Z,48785.22
2023-05-20T07:14:24.109Z,48781.31
2023-05-20T07:16:52.235Z,48789.13
2023-05-20T07:19:19.041Z,48777.38
2023-05-20T07:21:50.327Z,48796.97
2023-05-20T07:24:17.305Z,48789.13
2023-05-20T07:26:44.162Z,48787.19
2023-05-20T07:29:11.009Z,48761.72
2023-05-20T07:31:37.602Z,48781.31
2023-05-20T07:34:04.369Z,48779.34
2023-05-20T07:36:32.557Z,48753.88
2023-05-20T07:39:03.986Z,48755.84
2023-05-20T07:41:31.968Z,48753.88
2023-05-20T07:43:58.602Z,48775.41
2023-05-20T07:46:26.229Z,48769.53
2023-05-20T07:48:52.884Z,48775.41
2023-05-20T07:51:19.598Z,48765.63
2023-05-20T07:53:46.336Z,48789.13
2023-05-20T07:56:13.065Z,48783.25
2023-05-20T07:58:43.827Z,48798.94
2023-05-20T08:01:10.668Z,48795.00
2023-05-20T08:03:37.360Z,48806.75
2023-05-20T08:06:04.419Z,48804.81
2023-05-20T08:08:31.283Z,48796.97
2023-05-20T08:10:58.011Z,48806.75
2023-05-20T08:13:25.106Z,48789.13
2023-05-20T08:15:55.607Z,48793.06
2023-05-20T08:18:22.883Z,48808.72
2023-05-20T08:20:51.369Z,48816.56
2023-05-20T08:23:17.982Z,48808.72
2023-05-20T08:25:47.010Z,48787.19
2023-05-20T08:28:13.462Z,48773.47
2023-05-20T08:30:40.584Z,48781.31
2023-05-20T08:33:08.628Z,48769.53
2023-05-20T08:35:39.986Z,48765.63
2023-05-20T08:38:07.169Z,48816.56
2023-05-20T08:40:37.223Z,48796.97
2023-05-20T08:43:04.768Z,48789.13
2023-05-20T08:45:33.600Z,48820.47
2023-05-20T08:48:01.061Z,48800.88
2023-05-20T08:50:28.157Z,48781.31
2023-05-20T08:52:57.791Z,48796.97
2023-05-20T08:55:37.250Z,48806.75
2023-05-20T08:58:04.065Z,48820.47
2023-05-20T09:00:30.861Z,48800.88
2023-05-20T09:03:00.716Z,48812.63
2023-05-20T09:05:27.993Z,48800.88
2023-05-20T09:08:05.513Z,48773.47
2023-05-20T09:10:33.560Z,48822.44
2023-05-20T09:13:03.209Z,48828.31
2023-05-20T09:15:35.422Z,48793.06
2023-05-20T09:18:08.879Z,48804.81
2023-05-20T09:20:37.735Z,48812.63
2023-05-20T09:23:10.885Z,48806.75
2023-05-20T09:25:38.239Z,48812.63
2023-05-20T09:28:06.495Z,48812.63
2023-05-20T09:30:33.887Z,48810.69
2023-05-20T09:33:02.321Z,48820.47
2023-05-20T09:35:29.193Z,48828.31
2023-05-20T09:37:57.662Z,48816.56
2023-05-20T09:40:29.182Z,48816.56
2023-05-20T09:43:03.896Z,48830.28
2023-05-20T09:45:31.026Z,48785.22
2023-05-20T09:47:58.215Z,48832.22
2023-05-20T09:50:25.811Z,48808.72
2023-05-20T09:52:54.543Z,48800.88
2023-05-20T09:55:24.556Z,48812.63
2023-05-20T09:57:53.202Z,48845.94
2023-05-20T10:00:19.860Z,48793.06
2023-05-20T10:02:48.899Z,48824.41
2023-05-20T10:05:24.149Z,48808.72
2023-05-20T10:08:02.976Z,48836.16
2023-05-20T10:11:15.104Z,48851.81
2023-05-20T10:14:14.575Z,48844.00
2023-05-20T10:17:02.994Z,48842.03
2023-05-20T10:19:33.869Z,48824.41
2023-05-20T10:22:10.654Z,48814.59
2023-05-20T10:24:41.913Z,48828.31
2023-05-20T10:27:15.996Z,48808.72
2023-05-20T10:29:53.803Z,48832.22
2023-05-20T10:32:35.023Z,48804.81
2023-05-20T10:35:05.353Z,48820.47
2023-05-20T10:37:44.016Z,48816.56
2023-05-20T10:40:13.480Z,48832.22
2023-05-20T10:42:40.901Z,48804.81
2023-05-20T10:45:08.366Z,48820.47
2023-05-20T10:47:35.698Z,48824.41
2023-05-20T10:50:05.044Z,48863.56
2023-05-20T10:52:37.216Z,48808.72
2023-05-20T10:55:05.174Z,48836.16
2023-05-20T10:57:35.336Z,48840.06
2023-05-20T11:00:01.945Z,48812.63
2023-05-20T11:02:29.341Z,48836.16
2023-05-20T11:04:59.238Z,48824.41
2023-05-20T11:07:30.006Z,48832.22
2023-05-20T11:09:59.864Z,48804.81
2023-05-20T11:12:28.197Z,48847.91
2023-05-20T11:14:55.672Z,48834.19
2023-05-20T11:17:22.430Z,48863.56
2023-05-20T11:19:48.966Z,48804.81
2023-05-20T11:22:15.914Z,48800.88
2023-05-20T11:24:42.705Z,48861.63
2023-05-20T11:27:09.530Z,48851.81
2023-05-20T11:29:36.153Z,48828.31
2023-05-20T11:32:04.029Z,48824.41
2023-05-20T11:34:38.153Z,48840.06
2023-05-20T11:37:09.420Z,48849.88
2023-05-20T11:39:37.166Z,48847.91
2023-05-20T11:42:03.961Z,48851.81
2023-05-20T11:44:30.723Z,48832.22
2023-05-20T11:47:01.841Z,48836.16
2023-05-20T11:49:28.951Z,48844.00
2023-05-20T11:51:56.903Z,48816.56
2023-05-20T11:54:24.789Z,48822.44
2023-05-20T11:56:52.337Z,48820.47
2023-05-20T11:59:19.454Z,48844.00
2023-05-20T12:01:46.354Z,48851.81
2023-05-20T12:04:17.548Z,48836.16
2023-05-20T12:06:44.522Z,48851.81
2023-05-20T12:09:11.653Z,48847.91
2023-05-20T12:11:41.470Z,48879.25
2023-05-20T12:14:09.119Z,48853.78
2023-05-20T12:16:36.898Z,48828.31
2023-05-20T12:19:04.127Z,48840.06
2023-05-20T12:21:31.554Z,48838.09
2023-05-20T12:24:01.352Z,48826.34
2023-05-20T12:26:29.384Z,48828.31
2023-05-20T12:28:56.280Z,48812.63
2023-05-20T12:31:23.067Z,48828.31
2023-05-20T12:33:49.716Z,48793.06
2023-05-20T12:36:16.401Z,48842.03
2023-05-20T12:38:43.300Z,48816.56
2023-05-20T12:41:09.821Z,48838.09
2023-05-20T12:43:37.451Z,48847.91
2023-05-20T12:46:05.210Z,48867.50
2023-05-20T12:48:32.222Z,48824.41
2023-05-20T12:50:59.461Z,48824.41
2023-05-20T12:53:26.394Z,48859.66
2023-05-20T12:55:53.179Z,48793.06
2023-05-20T12:58:19.699Z,48800.88
2023-05-20T13:00:46.375Z,48859.66
2023-05-20T13:03:12.994Z,48834.19
2023-05-20T13:05:39.837Z,48844.00
2023-05-20T13:08:06.337Z,48816.56
2023-05-20T13:10:33.650Z,48851.81
2023-05-20T13:13:00.596Z,48887.09
2023-05-20T13:15:28.103Z,48859.66
2023-05-20T13:17:54.962Z,48840.06
2023-05-20T13:20:21.687Z,48832.22
2023-05-20T13:22:50.297Z,48857.69
2023-05-20T13:25:17.190Z,48840.06
2023-05-20T13:27:44.102Z,48879.25
2023-05-20T13:30:13.307Z,48859.66
2023-05-20T13:32:40.096Z,48859.66
2023-05-20T13:35:07.257Z,48804.81
2023-05-20T13:37:33.714Z,48840.06
2023-05-20T13:40:00.484Z,48879.25
2023-05-20T13:42:27.252Z,48855.75
2023-05-20T13:44:53.810Z,48845.94
2023-05-20T13:47:20.318Z,48859.66
2023-05-20T13:49:46.755Z,48855.75
2023-05-20T13:52:13.701Z,48855.75
2023-05-20T13:54:40.539Z,48840.06
2023-05-20T13:57:08.100Z,48855.75
2023-05-20T13:59:35.207Z,48830.28
2023-05-20T14:02:02.175Z,48849.88
2023-05-20T14:04:29.321Z,48832.22
2023-05-20T14:06:55.892Z,48851.81
2023-05-20T14:09:22.650Z,48861.63
2023-05-20T14:11:54.357Z,48836.16
2023-05-20T14:14:23.686Z,48847.91
2023-05-20T14:16:50.471Z,48867.50
2023-05-20T14:19:17.053Z,48822.44
2023-05-20T14:21:43.839Z,48816.56
2023-05-20T14:24:10.877Z,48844.00
2023-05-20T14:26:37.353Z,48828.31
2023-05-20T14:29:03.929Z,48867.50
2023-05-20T14:31:30.673Z,48863.56
2023-05-20T14:33:57.570Z,48836.16
2023-05-20T14:36:24.174Z,48844.00
2023-05-20T14:38:50.760Z,48820.47
2023-05-20T14:41:17.481Z,48826.34
2023-05-20T14:43:43.942Z,48851.81
2023-05-20T14:46:11.052Z,48840.06
2023-05-20T14:48:37.671Z,48820.47
2023-05-20T14:51:04.508Z,48842.03
2023-05-20T14:53:32.234Z,48838.09
2023-05-20T14:56:00.458Z,48804.81
2023-05-20T14:58:26.925Z,48812.63
2023-05-20T15:00:53.632Z,48840.06
2023-05-20T15:03:20.665Z,48832.22
2023-05-20T15:05:47.244Z,48840.06
2023-05-20T15:08:13.837Z,48847.91
2023-05-20T15:10:40.796Z,48824.41
2023-05-20T15:13:07.541Z,48844.00
2023-05-20T15:15:35.577Z,48844.00
2023-05-20T15:18:02.547Z,48845.94
2023-05-20T15:20:29.004Z,48867.50
2023-05-20T15:22:57.617Z,48840.06
2023-05-20T15:25:25.590Z,48840.06
2023-05-20T15:27:52.044Z,48853.78
2023-05-20T15:30:18.874Z,48838.09
2023-05-20T15:32:45.440Z,48810.69
2023-05-20T15:35:12.442Z,48859.66
2023-05-20T15:37:39.286Z,48816.56
2023-05-20T15:40:06.624Z,48824.41
2023-05-20T15:42:33.141Z,48855.75
2023-05-20T15:45:02.093Z,48838.09
2023-05-20T15:47:28.608Z,48855.75
2023-05-20T15:49:57.339Z,48816.56
2023-05-20T15:52:23.869Z,48844.00
2023-05-20T15:54:50.654Z,48847.91
2023-05-20T15:57:17.081Z,48822.44
2023-05-20T15:59:45.727Z,48844.00
2023-05-20T16:02:12.451Z,48820.47
2023-05-20T16:04:40.179Z,48869.44
2023-05-20T16:07:06.937Z,48828.31
2023-05-20T16:09:33.510Z,48847.91
2023-05-20T16:12:00.018Z,48844.00
2023-05-20T16:14:27.681Z,48857.69
2023-05-20T16:16:54.131Z,48851.81
2023-05-20T16:19:20.998Z,48820.47
2023-05-20T16:21:47.434Z,48847.91
2023-05-20T16:24:14.442Z,48836.16
2023-05-20T16:26:40.979Z,48859.66
2023-05-20T16:29:08.009Z,48824.41
2023-05-20T16:31:34.572Z,48855.75
2023-05-20T16:34:01.123Z,48828.31
2023-05-20T16:36:27.630Z,48842.03
2023-05-20T16:38:54.396Z,48840.06
2023-05-20T16:41:20.911Z,48834.19
2023-05-20T16:43:47.377Z,48844.00
2023-05-20T16:46:14.605Z,48824.41
2023-05-20T16:48:41.381Z,48867.50
2023-05-20T16:51:08.880Z,48808.72
2023-05-20T16:53:35.521Z,48812.63
2023-05-20T16:56:04.743Z,48828.31
2023-05-20T16:58:31.989Z,48822.44
2023-05-20T17:00:58.518Z,48844.00
2023-05-20T17:03:25.173Z,48836.16
2023-05-20T17:05:51.674Z,48812.63
2023-05-20T17:08:18.536Z,48828.31
2023-05-20T17:10:49.464Z,48820.47
2023-05-20T17:13:17.515Z,48861.63
2023-05-20T17:15:43.951Z,48845.94
2023-05-20T17:18:10.469Z,48820.47
2023-05-20T17:20:36.977Z,48812.63
2023-05-20T17:23:03.472Z,48793.06
2023-05-20T17:25:30.032Z,48816.56
2023-05-20T17:27:56.636Z,48836.16
2023-05-20T17:30:23.434Z,48824.41
2023-05-20T17:32:51.711Z,48820.47
2023-05-20T17:35:20.786Z,48824.41
2023-05-20T17:37:47.480Z,48828.31
2023-05-20T17:40:14.065Z,48806.75
2023-05-20T17:42:41.055Z,48824.41
2023-05-20T17:45:08.328Z,48828.31
2023-05-20T17:47:35.394Z,48800.88
2023-05-20T17:50:02.804Z,48793.06
2023-05-20T17:52:29.672Z,48804.81
2023-05-20T17:54:57.497Z,48785.22
2023-05-20T17:57:24.080Z,48796.97
2023-05-20T17:59:50.886Z,48796.97
2023-05-20T18:02:17.663Z,48847.91
2023-05-20T18:04:44.158Z,48822.44
2023-05-20T18:07:13.128Z,48832.22
2023-05-20T18:09:39.711Z,48812.63
2023-05-20T18:12:07.684Z,48812.63
2023-05-20T18:14:34.193Z,48804.81
2023-05-20T18:17:01.266Z,48793.06
2023-05-20T18:19:28.219Z,48816.56
2023-05-20T18:21:56.060Z,48783.25
2023-05-20T18:24:22.597Z,48793.06
2023-05-20T18:26:49.269Z,48793.06
2023-05-20T18:29:16.067Z,48783.25
2023-05-20T18:31:43.687Z,48820.47
2023-05-20T18:34:10.854Z,48793.06
2023-05-20T18:36:37.561Z,48793.06
2023-05-20T18:39:05.120Z,48787.19
2023-05-20T18:41:45.825Z,48795.00
2023-05-20T18:44:15.329Z,48781.31
2023-05-20T18:46:42.230Z,48802.84
2023-05-20T18:49:11.073Z,48789.13
2023-05-20T18:51:38.754Z,48798.94
2023-05-20T18:54:05.745Z,48761.72
2023-05-20T18:56:36.086Z,48789.13
2023-05-20T18:59:02.713Z,48808.72
2023-05-20T19:01:29.335Z,48777.38
2023-05-20T19:03:57.956Z,48800.88
2023-05-20T19:06:24.479Z,48800.88
2023-05-20T19:08:53.314Z,48804.81
2023-05-20T19:11:20.787Z,48802.84
2023-05-20T19:13:47.643Z,48789.13
2023-05-20T19:16:14.195Z,48779.34
2023-05-20T19:18:40.860Z,48796.97
2023-05-20T19:21:07.547Z,48773.47
2023-05-20T19:23:34.320Z,48802.84
2023-05-20T19:26:00.909Z,48773.47
2023-05-20T19:28:27.808Z,48789.13
2023-05-20T19:30:54.324Z,48787.19
2023-05-20T19:33:21.491Z,48793.06
2023-05-20T19:35:48.501Z,48791.09
2023-05-20T19:38:15.540Z,48753.88
2023-05-20T19:40:45.886Z,48773.47
2023-05-20T19:43:12.635Z,48777.38
2023-05-20T19:45:39.656Z,48765.63
2023-05-20T19:48:06.930Z,48836.16
2023-05-20T19:50:33.779Z,48785.22
2023-05-20T19:53:01.543Z,48779.34
2023-05-20T19:55:29.789Z,48789.13
2023-05-20T19:57:56.786Z,48771.50
2023-05-20T20:00:23.601Z,48789.13
2023-05-20T20:02:50.112Z,48751.91
2023-05-20T20:05:16.864Z,48769.53
2023-05-20T20:07:43.703Z,48777.38
2023-05-20T20:10:11.970Z,48773.47
2023-05-20T20:12:38.704Z,48769.53
2023-05-20T20:15:05.693Z,48793.06
2023-05-20T20:17:33.673Z,48781.31
2023-05-20T20:20:00.919Z,48753.88
2023-05-20T20:22:27.585Z,48777.38
2023-05-20T20:24:54.365Z,48759.75
2023-05-20T20:27:24.110Z,48732.31
2023-05-20T20:29:51.379Z,48779.34
2023-05-20T20:32:20.186Z,48781.31
2023-05-20T20:34:47.831Z,48789.13
2023-05-20T20:37:15.417Z,48771.50
2023-05-20T20:39:43.158Z,48761.72
2023-05-20T20:42:09.651Z,48769.53
2023-05-20T20:44:40.236Z,48753.88
2023-05-20T20:47:07.896Z,48785.22
2023-05-20T20:49:35.272Z,48789.13
2023-05-20T20:52:02.021Z,48775.41
2023-05-20T20:54:28.526Z,48781.31
2023-05-20T20:56:56.923Z,48769.53
2023-05-20T20:59:26.280Z,48746.03
2023-05-20T21:01:53.200Z,48759.75
2023-05-20T21:04:19.908Z,48755.84
2023-05-20T21:06:47.155Z,48773.47
2023-05-20T21:09:14.346Z,48765.63
2023-05-20T21:11:42.599Z,48765.63
2023-05-20T21:14:10.352Z,48738.19
2023-05-20T21:16:39.063Z,48761.72
2023-05-20T21:19:06.093Z,48757.78
2023-05-20T21:21:32.587Z,48757.78
2023-05-20T21:23:59.064Z,48746.03
2023-05-20T21:26:26.137Z,48734.28
2023-05-20T21:28:52.900Z,48757.78
2023-05-20T21:31:19.773Z,48779.34
2023-05-20T21:33:46.412Z,48765.63
2023-05-20T21:36:15.286Z,48730.38
2023-05-20T21:38:41.724Z,48738.19
2023-05-20T21:41:08.476Z,48757.78
2023-05-20T21:43:36.084Z,48763.66
2023-05-20T21:46:05.269Z,48699.03
2023-05-20T21:48:32.484Z,48773.47
2023-05-20T21:50:59.000Z,48732.31
2023-05-20T21:53:25.770Z,48757.78
2023-05-20T21:55:54.557Z,48742.13
2023-05-20T21:58:25.029Z,48777.38
2023-05-20T22:00:51.733Z,48742.13
2023-05-20T22:03:18.385Z,48759.75
2023-05-20T22:05:46.111Z,48744.06
2023-05-20T22:08:12.900Z,48765.63
2023-05-20T22:10:40.230Z,48746.03
2023-05-20T22:13:07.119Z,48753.88
2023-05-20T22:15:34.209Z,48753.88
2023-05-20T22:18:04.217Z,48744.06
2023-05-20T22:20:34.120Z,48742.13
2023-05-20T22:23:01.681Z,48781.31
2023-05-20T22:25:28.190Z,48753.88
2023-05-20T22:27:54.726Z,48765.63
2023-05-20T22:30:21.275Z,48757.78
2023-05-20T22:32:47.863Z,48746.03
2023-05-20T22:35:14.520Z,48759.75
2023-05-20T22:37:42.655Z,48746.03
2023-05-20T22:40:10.197Z,48744.06
2023-05-20T22:42:36.685Z,48763.66
2023-05-20T22:45:03.510Z,48757.78
2023-05-20T22:47:30.300Z,48742.13
2023-05-20T22:50:02.632Z,48753.88
2023-05-20T22:52:29.660Z,48746.03
2023-05-20T22:54:56.625Z,48763.66
2023-05-20T22:57:23.139Z,48734.28
2023-05-20T22:59:52.411Z,48769.53
2023-05-20T23:02:20.709Z,48761.72
2023-05-20T23:04:47.531Z,48765.63
2023-05-20T23:07:15.020Z,48714.69
2023-05-20T23:09:42.521Z,48753.88
2023-05-20T23:12:10.152Z,48734.28
2023-05-20T23:14:36.669Z,48742.13
2023-05-20T23:17:03.559Z,48753.88
2023-05-20T23:19:30.382Z,48753.88
2023-05-20T23:21:59.696Z,48763.66
2023-05-20T23:24:26.965Z,48773.47
2023-05-20T23:26:54.430Z,48742.13
2023-05-20T23:29:21.508Z,48765.63
2023-05-20T23:31:49.385Z,48759.75
2023-05-20T23:34:19.894Z,48757.78
2023-05-20T23:36:49.144Z,48746.03
2023-05-20T23:39:18.309Z,48746.03
2023-05-20T23:41:45.097Z,48789.13
2023-05-20T23:44:16.460Z,48757.78
2023-05-20T23:46:42.922Z,48734.28
2023-05-20T23:49:10.336Z,48757.78
2023-05-20T23:51:36.864Z,48753.88
2023-05-20T23:54:03.475Z,48775.41
2023-05-20T23:56:29.937Z,48757.78
2023-05-20T23:58:58.481Z,48775.41
